Estación de Casa Rosada

Ultimos registro cada 15 minutos 65
Estación Fecha / Hora Temperatura Humedad Lluvia Velocidad Dirección Radiación Presion
65 Casa Rosada 03-09-2026 16:00 31,8 11 0 1,3 314 485 1008,8
64 Casa Rosada 03-09-2026 15:45 31,8 11 0 1,3 314 485 1008,8
63 Casa Rosada 03-09-2026 15:30 31,7 10 0 1,8 335 529 1008,8
62 Casa Rosada 03-09-2026 15:15 31,8 11 0 1,3 343 570 1009
61 Casa Rosada 03-09-2026 15:00 32 11 0 1,3 348 647 1009,3
60 Casa Rosada 03-09-2026 14:45 32 11 0 1,3 348 647 1009,3
59 Casa Rosada 03-09-2026 14:30 32,2 11 0 1,8 334 682 1009,6
58 Casa Rosada 03-09-2026 14:15 32,1 11 0 0,9 342 714 1009,9
57 Casa Rosada 03-09-2026 14:00 31,9 12 0 3,1 322 759 1010,1
56 Casa Rosada 03-09-2026 13:45 31,9 12 0 3,1 322 759 1010,1
55 Casa Rosada 03-09-2026 13:30 32 12 0 2,2 352 766 1010,2
54 Casa Rosada 03-09-2026 13:15 31,4 12 0 1,3 323 777 1010,4
53 Casa Rosada 03-09-2026 13:00 30,8 13 0 2,2 307 788 1010,9
52 Casa Rosada 03-09-2026 12:45 30,8 13 0 2,2 307 788 1010,9
51 Casa Rosada 03-09-2026 12:30 30,7 14 0 2,2 325 782 1011,2
50 Casa Rosada 03-09-2026 12:15 30,1 13 0 0,4 339 780 1011,5
49 Casa Rosada 03-09-2026 12:00 29,1 13 0 2,7 12 761 1012
48 Casa Rosada 03-09-2026 11:45 29,1 13 0 2,7 12 761 1012
47 Casa Rosada 03-09-2026 11:30 28,4 12 0 1,3 20 745 1012,2
46 Casa Rosada 03-09-2026 11:15 27,7 13 0 0,9 339 728 1012,5
45 Casa Rosada 03-09-2026 11:00 26,3 16 0 0,4 22 675 1013,3
44 Casa Rosada 03-09-2026 10:45 26,3 16 0 0,4 22 675 1013,3
43 Casa Rosada 03-09-2026 10:30 25,1 19 0 0,4 46 643 1013,6
42 Casa Rosada 03-09-2026 10:15 24,2 21 0 0,9 39 608 1014,1
41 Casa Rosada 03-09-2026 10:00 22,2 26 0 0,4 14 529 1015
40 Casa Rosada 03-09-2026 09:45 22,2 26 0 0,4 14 529 1015
39 Casa Rosada 03-09-2026 09:30 20,7 32 0 0 163 487 1015,5
38 Casa Rosada 03-09-2026 09:15 18,9 36 0 0 104 438 1015,8
37 Casa Rosada 03-09-2026 09:00 14,6 55 0 0,9 181 338 1015,8
36 Casa Rosada 03-09-2026 08:45 14,6 55 0 0,9 181 338 1015,8
35 Casa Rosada 03-09-2026 08:30 12,2 65 0 0,4 162 25 1015,8
34 Casa Rosada 03-09-2026 08:15 11,2 68 0 0,4 122 21 1015,5
33 Casa Rosada 03-09-2026 08:00 11,1 68 0 0,9 148 18 1015,5
32 Casa Rosada 03-09-2026 07:45 11,1 68 0 0,9 148 18 1015,5
31 Casa Rosada 03-09-2026 07:30 12 65 0 1,3 189 16 1015,3
30 Casa Rosada 03-09-2026 07:15 11 69 0 0,9 167 11 1015,2
29 Casa Rosada 03-09-2026 07:00 11,3 68 0 0,4 155 0 1014,9
28 Casa Rosada 03-09-2026 06:45 11,3 68 0 0,4 155 0 1014,9
27 Casa Rosada 03-09-2026 06:30 11,7 67 0 0 155 0 1014,8
26 Casa Rosada 03-09-2026 06:15 11,6 68 0 1,3 172 0 1014,6
25 Casa Rosada 03-09-2026 06:00 12,1 67 0 0,4 167 0 1014,4
24 Casa Rosada 03-09-2026 05:45 12,1 67 0 0,4 167 0 1014,4
23 Casa Rosada 03-09-2026 05:30 12,4 66 0 0,9 160 0 1014,3
22 Casa Rosada 03-09-2026 05:15 12,6 66 0 0,9 172 0 1014,2
21 Casa Rosada 03-09-2026 05:00 12,8 66 0 0,9 167 0 1013,9
20 Casa Rosada 03-09-2026 04:45 12,8 66 0 0,9 167 0 1013,9
19 Casa Rosada 03-09-2026 04:30 12,7 66 0 1,3 167 0 1013,7
18 Casa Rosada 03-09-2026 04:15 12,8 66 0 1,3 177 0 1014
17 Casa Rosada 03-09-2026 04:00 13,2 66 0 0,9 172 0 1014,2
16 Casa Rosada 03-09-2026 03:45 13,2 66 0 0,9 172 0 1014,2
15 Casa Rosada 03-09-2026 03:30 12,8 67 0 0,9 167 0 1014,4
14 Casa Rosada 03-09-2026 03:15 12,6 68 0 0,9 167 0 1014,4
13 Casa Rosada 03-09-2026 03:00 12,3 70 0 0,9 154 0 1014,4
12 Casa Rosada 03-09-2026 02:45 12,3 70 0 0,9 154 0 1014,4
11 Casa Rosada 03-09-2026 02:30 12,3 70 0 0,4 172 0 1014,4
10 Casa Rosada 03-09-2026 02:15 12,7 69 0 0,4 177 0 1014,4
9 Casa Rosada 03-09-2026 02:00 13,1 69 0 0,9 177 0 1014,3
8 Casa Rosada 03-09-2026 01:45 13,1 69 0 0,9 177 0 1014,3
7 Casa Rosada 03-09-2026 01:30 13,3 69 0 0,9 167 0 1014,4
6 Casa Rosada 03-09-2026 01:15 14,1 66 0 0,4 177 0 1014,5
5 Casa Rosada 03-09-2026 01:00 15,3 67 0 0 177 0 1014,5
4 Casa Rosada 03-09-2026 00:45 15,3 67 0 0 177 0 1014,5
3 Casa Rosada 03-09-2026 00:30 15,9 64 0 0 358 0 1014,3
2 Casa Rosada 03-09-2026 00:15 16,4 61 0 0 358 0 1014,3
1 Casa Rosada 03-09-2026 00:00 17,3 60 0 0,4 358 0 1014,1